Time;durP1;ratioP1;P1;durP2;ratioP2;P2;SDS_P1;SDS_P2;PMS_P1;PMS_P2;Temp;Humidity;BMP_temperature;BMP_pressure;BME280_temperature;BME280_humidity;BME280_pressure;Samples;Min_cycle;Max_cycle;Signal;HPM_P1;HPM_P2
2023/10/05 00:02:10;;;;;;;6.95;1.58;;;;;;;;;;4998204;28;20049;-70
2023/10/05 00:04:41;;;;;;;8.77;1.20;;;;;;;;;;4996298;28;20046;-70
2023/10/05 00:07:10;;;;;;;7.18;1.58;;;;;;;;;;4990838;28;20046;-70
2023/10/05 00:09:38;;;;;;;12.15;1.85;;;;;;;;;;4981163;28;20049;-72
2023/10/05 00:12:07;;;;;;;7.45;1.20;;;;;;;;;;4994172;28;20058;-70
2023/10/05 00:14:36;;;;;;;12.60;1.45;;;;;;;;;;4995726;28;20046;-70
2023/10/05 00:17:07;;;;;;;7.18;1.48;;;;;;;;;;4977343;28;20160;-70
2023/10/05 00:19:37;;;;;;;9.20;1.55;;;;;;;;;;4977461;28;20530;-70
2023/10/05 00:22:04;;;;;;;9.10;1.40;;;;;;;;;;4996808;28;20109;-71
2023/10/05 00:24:35;;;;;;;7.47;1.10;;;;;;;;;;4973895;28;20042;-70
2023/10/05 00:27:04;;;;;;;5.18;1.25;;;;;;;;;;4995801;28;20054;-70
2023/10/05 00:29:40;;;;;;;13.43;1.67;;;;;;;;;;4994139;28;20058;-69
2023/10/05 00:32:14;;;;;;;17.13;1.83;;;;;;;;;;4977244;28;20050;-70
2023/10/05 00:34:42;;;;;;;6.50;1.38;;;;;;;;;;5000846;28;20100;-68
2023/10/05 00:37:11;;;;;;;6.95;1.15;;;;;;;;;;5000103;28;20086;-69
2023/10/05 00:39:41;;;;;;;10.43;1.48;;;;;;;;;;4997213;28;20054;-70
2023/10/05 00:42:10;;;;;;;7.65;1.52;;;;;;;;;;4993926;28;20145;-70
2023/10/05 00:44:40;;;;;;;6.90;1.27;;;;;;;;;;4998859;28;20120;-70
2023/10/05 00:47:12;;;;;;;12.30;1.77;;;;;;;;;;4990738;28;20141;-70
2023/10/05 00:49:45;;;;;;;11.88;1.48;;;;;;;;;;4993305;28;20592;-70
2023/10/05 00:52:15;;;;;;;6.88;1.30;;;;;;;;;;4998544;28;20050;-69
2023/10/05 00:54:44;;;;;;;12.20;1.20;;;;;;;;;;4992621;28;20416;-69
2023/10/05 00:57:14;;;;;;;10.32;1.38;;;;;;;;;;4992951;28;20081;-69
2023/10/05 00:59:42;;;;;;;13.27;1.70;;;;;;;;;;4997322;28;21116;-69
2023/10/05 01:02:16;;;;;;;9.07;1.50;;;;;;;;;;4992996;28;20046;-70
2023/10/05 01:04:55;;;;;;;12.60;1.50;;;;;;;;;;4978064;28;20081;-70
2023/10/05 01:13:00;;;;;;;9.32;1.17;;;;;;;;;;4987695;28;20061;-70
2023/10/05 01:15:33;;;;;;;6.40;1.27;;;;;;;;;;4994044;28;21274;-69
2023/10/05 01:18:02;;;;;;;7.75;1.10;;;;;;;;;;4993524;28;20060;-70
2023/10/05 01:20:36;;;;;;;8.05;1.75;;;;;;;;;;4989290;28;20043;-69
2023/10/05 01:23:06;;;;;;;9.38;1.15;;;;;;;;;;4993553;28;20046;-69
2023/10/05 01:25:36;;;;;;;11.98;1.42;;;;;;;;;;4989543;28;20046;-70
2023/10/05 01:28:04;;;;;;;9.52;1.75;;;;;;;;;;4989559;28;20133;-70
2023/10/05 01:30:33;;;;;;;5.78;1.30;;;;;;;;;;4994931;28;20046;-70
2023/10/05 01:33:01;;;;;;;11.93;1.77;;;;;;;;;;4992822;28;20061;-70
2023/10/05 01:35:29;;;;;;;11.32;1.55;;;;;;;;;;4997101;28;20410;-69
2023/10/05 01:37:59;;;;;;;11.80;1.75;;;;;;;;;;4993446;28;20436;-70
2023/10/05 01:40:30;;;;;;;11.05;1.77;;;;;;;;;;4975498;28;20050;-68
2023/10/05 01:42:59;;;;;;;10.30;1.63;;;;;;;;;;4986597;28;20054;-71
2023/10/05 01:45:29;;;;;;;13.95;1.40;;;;;;;;;;4992692;28;20042;-69
2023/10/05 01:47:57;;;;;;;9.82;1.60;;;;;;;;;;4972053;28;20091;-71
2023/10/05 01:50:26;;;;;;;8.38;1.42;;;;;;;;;;4975519;28;20100;-70
2023/10/05 01:53:01;;;;;;;8.07;1.40;;;;;;;;;;4995717;28;20053;-69
2023/10/05 01:55:31;;;;;;;9.70;1.77;;;;;;;;;;4971424;28;20057;-72
2023/10/05 01:57:59;;;;;;;8.65;1.90;;;;;;;;;;4990067;28;20646;-70
2023/10/05 02:00:26;;;;;;;12.80;2.17;;;;;;;;;;4990516;28;20047;-69
2023/10/05 02:02:55;;;;;;;7.32;1.38;;;;;;;;;;4993009;28;20054;-70
2023/10/05 02:05:23;;;;;;;12.55;1.75;;;;;;;;;;4991789;28;20092;-70
2023/10/05 02:07:50;;;;;;;9.27;1.80;;;;;;;;;;4991980;28;20042;-70
2023/10/05 02:10:20;;;;;;;7.13;1.80;;;;;;;;;;4991877;28;20460;-70
2023/10/05 02:12:54;;;;;;;10.93;2.00;;;;;;;;;;4991277;28;20128;-69
2023/10/05 02:15:28;;;;;;;6.53;1.50;;;;;;;;;;4990138;28;20050;-69
2023/10/05 02:17:56;;;;;;;11.35;1.95;;;;;;;;;;4992760;28;20657;-70
2023/10/05 02:20:44;;;;;;;18.42;2.10;;;;;;;;;;4993893;28;20377;-69
2023/10/05 02:26:00;;;;;;;10.63;1.60;;;;;;;;;;4990556;28;20065;-70
2023/10/05 02:28:33;;;;;;;15.40;1.92;;;;;;;;;;4992742;28;20056;-70
2023/10/05 02:31:01;;;;;;;12.15;1.83;;;;;;;;;;5005752;28;20528;-70
2023/10/05 02:33:31;;;;;;;16.08;1.88;;;;;;;;;;4988404;28;20054;-70
2023/10/05 02:36:09;;;;;;;9.90;1.88;;;;;;;;;;4976019;28;20057;-70
2023/10/05 02:38:37;;;;;;;12.13;1.73;;;;;;;;;;4987303;28;20157;-69
2023/10/05 02:41:05;;;;;;;9.95;1.52;;;;;;;;;;4974152;28;20054;-68
2023/10/05 02:43:39;;;;;;;14.02;2.05;;;;;;;;;;4992378;28;20097;-70
2023/10/05 02:46:11;;;;;;;14.27;1.77;;;;;;;;;;4991715;28;20050;-69
2023/10/05 02:48:39;;;;;;;13.60;2.47;;;;;;;;;;4972508;28;20779;-69
2023/10/05 02:51:08;;;;;;;7.30;2.10;;;;;;;;;;4977707;28;20050;-69
2023/10/05 02:53:41;;;;;;;10.88;1.75;;;;;;;;;;4995142;28;20046;-69
2023/10/05 02:56:07;;;;;;;;;;;;;;;;;;4994985;28;20049;-71
2023/10/05 02:58:36;;;;;;;12.63;1.70;;;;;;;;;;4975732;28;20368;-70
2023/10/05 03:01:10;;;;;;;12.90;1.70;;;;;;;;;;4998522;28;20056;-69
2023/10/05 03:03:38;;;;;;;7.85;1.40;;;;;;;;;;4992471;28;20054;-70
2023/10/05 03:06:05;;;;;;;15.88;1.73;;;;;;;;;;4998286;28;20528;-71
2023/10/05 03:08:36;;;;;;;13.20;1.58;;;;;;;;;;4978422;28;20515;-69
2023/10/05 03:11:06;;;;;;;14.25;2.00;;;;;;;;;;4993570;28;20096;-71
2023/10/05 03:13:34;;;;;;;9.43;1.73;;;;;;;;;;4997779;28;20062;-70
2023/10/05 03:16:06;;;;;;;12.20;2.03;;;;;;;;;;4976300;28;20054;-70
2023/10/05 03:18:37;;;;;;;16.80;1.65;;;;;;;;;;4997882;28;20062;-70
2023/10/05 03:21:10;;;;;;;14.23;2.03;;;;;;;;;;4987776;28;20077;-69
2023/10/05 03:23:38;;;;;;;9.77;1.45;;;;;;;;;;4999936;28;20521;-70
2023/10/05 03:26:07;;;;;;;11.77;2.20;;;;;;;;;;4995761;28;20053;-70
2023/10/05 03:28:35;;;;;;;10.73;2.33;;;;;;;;;;4997468;28;20042;-69
2023/10/05 03:31:08;;;;;;;9.05;1.48;;;;;;;;;;4977787;28;20050;-70
2023/10/05 03:33:36;;;;;;;15.57;2.35;;;;;;;;;;4997088;28;20121;-70
2023/10/05 03:36:06;;;;;;;7.78;1.42;;;;;;;;;;4995777;28;20051;-69
2023/10/05 03:38:39;;;;;;;19.55;2.33;;;;;;;;;;4999375;28;20054;-70
2023/10/05 03:41:12;;;;;;;13.13;1.83;;;;;;;;;;4999478;28;20052;-70
2023/10/05 03:43:41;;;;;;;11.73;1.75;;;;;;;;;;4996365;28;20120;-70
2023/10/05 03:46:09;;;;;;;12.80;1.60;;;;;;;;;;4994542;28;20101;-72
2023/10/05 03:48:38;;;;;;;11.05;1.85;;;;;;;;;;4992957;28;20058;-69
2023/10/05 03:51:15;;;;;;;13.85;1.92;;;;;;;;;;4994542;28;20125;-69
2023/10/05 03:53:42;;;;;;;13.02;1.92;;;;;;;;;;4990806;28;20054;-70
2023/10/05 03:56:12;;;;;;;14.38;1.73;;;;;;;;;;4994600;28;20050;-70
2023/10/05 03:58:40;;;;;;;11.90;2.08;;;;;;;;;;4979713;28;20050;-70
2023/10/05 04:01:10;;;;;;;8.35;1.60;;;;;;;;;;4998227;28;20097;-69
2023/10/05 04:03:39;;;;;;;9.77;2.65;;;;;;;;;;5003220;28;20053;-69
2023/10/05 04:06:17;;;;;;;8.57;1.38;;;;;;;;;;4998117;28;20120;-70
2023/10/05 04:08:45;;;;;;;11.73;1.58;;;;;;;;;;4999644;28;20085;-69
2023/10/05 04:11:13;;;;;;;11.25;1.63;;;;;;;;;;4999851;28;20493;-70
2023/10/05 04:13:40;;;;;;;9.18;1.55;;;;;;;;;;4999939;28;20405;-69
2023/10/05 04:16:12;;;;;;;11.48;1.88;;;;;;;;;;4998732;28;20061;-70
2023/10/05 04:18:41;;;;;;;8.67;1.40;;;;;;;;;;4999822;28;20050;-70
2023/10/05 04:21:10;;;;;;;13.93;1.60;;;;;;;;;;4991731;28;20050;-70
2023/10/05 04:23:37;;;;;;;11.23;2.10;;;;;;;;;;4996718;28;20046;-70
2023/10/05 04:26:08;;;;;;;14.95;2.10;;;;;;;;;;4995418;28;20053;-69
2023/10/05 04:28:41;;;;;;;16.23;1.63;;;;;;;;;;4997496;28;20050;-70
2023/10/05 04:31:12;;;;;;;9.52;1.75;;;;;;;;;;4989846;28;20050;-71
2023/10/05 04:33:43;;;;;;;8.85;1.60;;;;;;;;;;4981223;28;20129;-70
2023/10/05 04:36:10;;;;;;;16.20;1.85;;;;;;;;;;4997064;28;20049;-69
2023/10/05 04:38:37;;;;;;;14.80;1.85;;;;;;;;;;4993356;28;20050;-69
2023/10/05 04:41:06;;;;;;;9.20;1.40;;;;;;;;;;4989055;28;20063;-69
2023/10/05 04:43:34;;;;;;;12.55;1.80;;;;;;;;;;4997054;28;20401;-69
2023/10/05 04:46:07;;;;;;;9.02;1.65;;;;;;;;;;4987944;28;20070;-70
2023/10/05 04:48:34;;;;;;;9.95;1.77;;;;;;;;;;4988908;28;20078;-70
2023/10/05 04:51:05;;;;;;;12.70;1.85;;;;;;;;;;4972136;28;20056;-70
2023/10/05 04:53:32;;;;;;;5.57;1.50;;;;;;;;;;4990590;28;20070;-70
2023/10/05 04:56:12;;;;;;;13.85;1.83;;;;;;;;;;4991951;28;20150;-69
2023/10/05 04:58:53;;;;;;;10.90;1.77;;;;;;;;;;4992820;28;20045;-71
2023/10/05 05:01:28;;;;;;;13.85;1.85;;;;;;;;;;4992536;28;20057;-70
2023/10/05 05:04:12;;;;;;;10.00;1.90;;;;;;;;;;4990001;28;20050;-69
2023/10/05 05:06:42;;;;;;;11.60;2.20;;;;;;;;;;4994502;28;20501;-69
2023/10/05 05:09:12;;;;;;;10.90;1.67;;;;;;;;;;4988593;28;20077;-70
2023/10/05 05:11:40;;;;;;;10.80;1.60;;;;;;;;;;4997185;28;20137;-72
2023/10/05 05:14:08;;;;;;;11.70;1.77;;;;;;;;;;4994422;28;20054;-69
2023/10/05 05:16:36;;;;;;;12.68;1.75;;;;;;;;;;4978247;28;20057;-69
2023/10/05 05:19:04;;;;;;;13.75;1.75;;;;;;;;;;4969603;28;20113;-70
2023/10/05 05:21:31;;;;;;;9.65;1.92;;;;;;;;;;5000956;28;20042;-69
2023/10/05 05:24:00;;;;;;;14.57;2.53;;;;;;;;;;4989257;28;20064;-69
2023/10/05 05:26:27;;;;;;;11.20;1.80;;;;;;;;;;4996347;28;20051;-70
2023/10/05 05:28:54;;;;;;;6.95;1.80;;;;;;;;;;4993585;28;20501;-70
2023/10/05 05:31:22;;;;;;;11.63;1.80;;;;;;;;;;4986754;28;20137;-70
2023/10/05 05:33:49;;;;;;;16.30;1.83;;;;;;;;;;4995547;28;20047;-68
2023/10/05 05:36:17;;;;;;;12.75;1.50;;;;;;;;;;4975563;28;20061;-70
2023/10/05 05:38:47;;;;;;;11.68;1.90;;;;;;;;;;4996505;28;20072;-68
2023/10/05 05:41:18;;;;;;;11.57;1.42;;;;;;;;;;4976950;28;20495;-69
2023/10/05 05:43:46;;;;;;;14.57;1.73;;;;;;;;;;4977296;28;20444;-69
2023/10/05 05:46:13;;;;;;;8.00;1.65;;;;;;;;;;4976117;28;20054;-70
2023/10/05 05:48:42;;;;;;;15.43;1.73;;;;;;;;;;4992007;28;20057;-70
2023/10/05 05:51:14;;;;;;;8.48;1.40;;;;;;;;;;4997460;28;20050;-68
2023/10/05 05:53:45;;;;;;;9.48;1.40;;;;;;;;;;4998579;28;20816;-70
2023/10/05 05:56:16;;;;;;;8.77;1.60;;;;;;;;;;4999640;28;20125;-70
2023/10/05 05:58:50;;;;;;;6.13;1.10;;;;;;;;;;4997423;28;20137;-69
2023/10/05 06:01:19;;;;;;;10.45;1.50;;;;;;;;;;4979188;28;20137;-70
2023/10/05 06:03:48;;;;;;;11.73;1.67;;;;;;;;;;4996677;28;20085;-70
2023/10/05 06:06:16;;;;;;;8.90;1.40;;;;;;;;;;4990017;28;20046;-69
2023/10/05 06:08:44;;;;;;;3.88;1.08;;;;;;;;;;4993848;28;20182;-70
2023/10/05 06:11:12;;;;;;;12.65;1.58;;;;;;;;;;4975517;28;20133;-69
2023/10/05 06:13:40;;;;;;;7.63;1.73;;;;;;;;;;4996378;28;20058;-70
2023/10/05 06:16:09;;;;;;;10.68;1.50;;;;;;;;;;4972712;28;20233;-68
2023/10/05 06:18:37;;;;;;;13.57;1.80;;;;;;;;;;4992963;28;20528;-70
2023/10/05 06:21:05;;;;;;;8.88;1.60;;;;;;;;;;4975945;28;20054;-68
2023/10/05 06:23:33;;;;;;;9.50;1.65;;;;;;;;;;4993156;28;20046;-67
2023/10/05 06:26:01;;;;;;;10.82;1.38;;;;;;;;;;4993319;28;20053;-68
2023/10/05 06:28:28;;;;;;;11.52;1.40;;;;;;;;;;4989568;28;20046;-67
2023/10/05 06:30:56;;;;;;;10.57;1.50;;;;;;;;;;4990951;28;20481;-67
2023/10/05 06:33:25;;;;;;;13.65;1.55;;;;;;;;;;4992811;28;20565;-67
2023/10/05 06:35:54;;;;;;;11.25;1.92;;;;;;;;;;4989614;28;20065;-67
2023/10/05 06:38:21;;;;;;;11.77;1.80;;;;;;;;;;4968040;28;20134;-67
2023/10/05 06:40:50;;;;;;;9.40;1.60;;;;;;;;;;4973569;28;20050;-66
2023/10/05 06:43:17;;;;;;;10.75;1.70;;;;;;;;;;4971611;28;20405;-66
2023/10/05 06:45:45;;;;;;;11.65;1.80;;;;;;;;;;4990822;28;20054;-67
2023/10/05 06:48:14;;;;;;;11.75;1.63;;;;;;;;;;4992030;28;20126;-67
2023/10/05 06:50:44;;;;;;;7.05;2.03;;;;;;;;;;4997275;28;20054;-68
2023/10/05 06:53:12;;;;;;;7.85;1.10;;;;;;;;;;4997542;28;20038;-66
2023/10/05 06:55:39;;;;;;;11.30;1.55;;;;;;;;;;4993747;28;20042;-66
2023/10/05 06:58:07;;;;;;;8.45;1.60;;;;;;;;;;4996662;28;20049;-66
2023/10/05 07:00:35;;;;;;;5.50;1.30;;;;;;;;;;4989206;28;20058;-67
2023/10/05 07:03:06;;;;;;;12.48;1.50;;;;;;;;;;4996441;28;20058;-67
2023/10/05 07:05:33;;;;;;;8.70;1.15;;;;;;;;;;4990658;28;20050;-66
2023/10/05 07:08:02;;;;;;;8.57;1.27;;;;;;;;;;4973509;28;20062;-66
2023/10/05 07:10:31;;;;;;;10.63;1.70;;;;;;;;;;4986769;28;20058;-65
2023/10/05 07:12:58;;;;;;;19.70;1.88;;;;;;;;;;4993905;28;20050;-65
2023/10/05 07:15:25;;;;;;;11.23;1.73;;;;;;;;;;4987716;28;20050;-65
2023/10/05 07:17:52;;;;;;;11.15;1.77;;;;;;;;;;4992226;28;20497;-65
2023/10/05 07:20:20;;;;;;;14.30;2.10;;;;;;;;;;4991502;28;20078;-64
2023/10/05 07:22:48;;;;;;;9.73;1.58;;;;;;;;;;4990600;28;20474;-63
2023/10/05 07:25:18;;;;;;;10.80;1.90;;;;;;;;;;4996391;28;20100;-64
2023/10/05 07:27:45;;;;;;;18.20;2.03;;;;;;;;;;4992244;28;20050;-64
2023/10/05 07:30:13;;;;;;;12.90;1.90;;;;;;;;;;4978597;28;20046;-64
2023/10/05 07:32:40;;;;;;;30.83;2.55;;;;;;;;;;4994194;28;20050;-64
2023/10/05 07:35:09;;;;;;;15.15;2.03;;;;;;;;;;4993414;28;20049;-64
2023/10/05 07:37:37;;;;;;;14.15;2.08;;;;;;;;;;4986770;28;20125;-65
2023/10/05 07:40:07;;;;;;;12.85;1.98;;;;;;;;;;4994144;28;20508;-64
2023/10/05 07:42:37;;;;;;;12.30;1.80;;;;;;;;;;4992529;28;20046;-65
2023/10/05 07:45:07;;;;;;;11.70;1.85;;;;;;;;;;4977984;28;20058;-64
2023/10/05 07:47:34;;;;;;;11.43;1.83;;;;;;;;;;4989937;28;20084;-63
2023/10/05 07:50:02;;;;;;;9.73;1.48;;;;;;;;;;4995061;28;20108;-65
2023/10/05 07:52:30;;;;;;;10.13;1.50;;;;;;;;;;4993158;28;20068;-64
2023/10/05 07:54:58;;;;;;;7.18;1.30;;;;;;;;;;4995597;28;20046;-64
2023/10/05 07:57:25;;;;;;;11.43;1.30;;;;;;;;;;4992764;28;20049;-64
2023/10/05 07:59:54;;;;;;;4.88;1.33;;;;;;;;;;4997957;28;20524;-64
2023/10/05 08:02:21;;;;;;;3.60;1.10;;;;;;;;;;4995546;28;20093;-64
2023/10/05 08:04:48;;;;;;;13.13;1.70;;;;;;;;;;5002940;28;20165;-63
2023/10/05 08:07:16;;;;;;;13.15;1.65;;;;;;;;;;4993266;28;20634;-64
2023/10/05 08:09:43;;;;;;;9.38;1.75;;;;;;;;;;4998694;28;20050;-65
2023/10/05 08:12:11;;;;;;;6.45;1.40;;;;;;;;;;4995951;28;20433;-63
2023/10/05 08:14:39;;;;;;;9.57;1.55;;;;;;;;;;4994036;28;20053;-63
2023/10/05 08:17:07;;;;;;;7.80;1.55;;;;;;;;;;4998644;28;20402;-64
2023/10/05 08:19:35;;;;;;;9.20;2.10;;;;;;;;;;4995839;28;20062;-64
2023/10/05 08:22:02;;;;;;;6.50;1.25;;;;;;;;;;4992534;28;20086;-63
2023/10/05 08:24:31;;;;;;;7.28;1.52;;;;;;;;;;4992539;28;20482;-65
2023/10/05 08:26:58;;;;;;;4.35;1.05;;;;;;;;;;4999134;28;20046;-63
2023/10/05 08:29:27;;;;;;;7.63;1.42;;;;;;;;;;4981352;28;20085;-63
2023/10/05 08:31:55;;;;;;;8.50;1.45;;;;;;;;;;5006786;28;20052;-64
2023/10/05 08:34:25;;;;;;;12.10;1.60;;;;;;;;;;4991391;28;20060;-64
2023/10/05 08:36:54;;;;;;;10.52;1.85;;;;;;;;;;4995261;28;20050;-64
2023/10/05 08:39:25;;;;;;;13.73;1.60;;;;;;;;;;4995498;28;20057;-64
2023/10/05 08:41:54;;;;;;;8.63;1.52;;;;;;;;;;4993821;28;20082;-64
2023/10/05 08:44:27;;;;;;;11.73;2.00;;;;;;;;;;4997143;28;20045;-64
2023/10/05 08:46:55;;;;;;;8.02;1.75;;;;;;;;;;4972930;28;20065;-64
2023/10/05 08:49:24;;;;;;;10.98;1.45;;;;;;;;;;4987454;28;20055;-64
2023/10/05 08:51:52;;;;;;;11.15;1.80;;;;;;;;;;4992872;28;20061;-63
2023/10/05 08:54:26;;;;;;;8.48;1.95;;;;;;;;;;4999665;28;20050;-64
2023/10/05 08:56:54;;;;;;;11.52;1.60;;;;;;;;;;4993552;28;20412;-63
2023/10/05 08:59:21;;;;;;;9.45;2.15;;;;;;;;;;5000114;28;20042;-64
2023/10/05 09:01:50;;;;;;;9.32;1.60;;;;;;;;;;4987401;28;20047;-64
2023/10/05 09:04:43;;;;;;;8.60;1.60;;;;;;;;;;4988859;28;20060;-64
2023/10/05 09:07:27;;;;;;;15.45;1.80;;;;;;;;;;4994102;28;20058;-64
2023/10/05 09:09:55;;;;;;;12.80;1.58;;;;;;;;;;4991114;28;20100;-64
2023/10/05 09:12:35;;;;;;;5.75;1.48;;;;;;;;;;4975316;28;20152;-64
2023/10/05 09:15:08;;;;;;;11.73;1.80;;;;;;;;;;4992465;28;20472;-64
2023/10/05 09:17:35;;;;;;;9.60;1.50;;;;;;;;;;4992408;28;20065;-65
2023/10/05 09:20:22;;;;;;;10.05;1.80;;;;;;;;;;4975669;28;20085;-64
2023/10/05 09:22:51;;;;;;;10.15;1.75;;;;;;;;;;4996819;28;20382;-65
2023/10/05 09:25:26;;;;;;;7.68;1.50;;;;;;;;;;4994918;28;20046;-65
2023/10/05 09:27:56;;;;;;;8.95;1.40;;;;;;;;;;4992405;28;20057;-64
2023/10/05 09:30:29;;;;;;;6.40;1.08;;;;;;;;;;4995455;28;20046;-64
2023/10/05 09:32:56;;;;;;;;;;;;;;;;;;4996278;28;20460;-65
2023/10/05 09:35:27;;;;;;;7.03;1.40;;;;;;;;;;4978663;28;19925;-64
2023/10/05 09:37:58;;;;;;;8.30;1.73;;;;;;;;;;4996575;28;20476;-64
2023/10/05 09:40:26;;;;;;;8.40;1.65;;;;;;;;;;4994118;28;20076;-65
2023/10/05 09:42:56;;;;;;;7.32;1.50;;;;;;;;;;4996707;28;20054;-65
2023/10/05 09:45:24;;;;;;;5.82;1.48;;;;;;;;;;4989351;28;20568;-66
2023/10/05 09:47:53;;;;;;;10.43;1.58;;;;;;;;;;4986321;28;20073;-66
2023/10/05 09:50:21;;;;;;;9.52;1.20;;;;;;;;;;4996492;28;20389;-66
2023/10/05 09:52:49;;;;;;;8.38;1.45;;;;;;;;;;4988970;28;20054;-65
2023/10/05 09:55:18;;;;;;;4.10;1.08;;;;;;;;;;4991067;28;20502;-65
2023/10/05 09:57:51;;;;;;;6.97;1.40;;;;;;;;;;4992443;28;20054;-66
2023/10/05 10:00:30;;;;;;;6.07;1.20;;;;;;;;;;4988627;28;20051;-65
2023/10/05 10:02:58;;;;;;;5.95;1.58;;;;;;;;;;4986200;28;20041;-67
2023/10/05 10:05:30;;;;;;;10.40;1.40;;;;;;;;;;4986000;28;20074;-66
2023/10/05 10:07:59;;;;;;;9.05;1.30;;;;;;;;;;4974140;28;20157;-66
2023/10/05 10:10:29;;;;;;;4.28;1.17;;;;;;;;;;4995205;28;20069;-66
2023/10/05 10:12:57;;;;;;;9.65;1.48;;;;;;;;;;4991753;28;20764;-65
2023/10/05 10:15:29;;;;;;;7.75;1.40;;;;;;;;;;4997483;28;20050;-66
2023/10/05 10:18:07;;;;;;;8.90;1.55;;;;;;;;;;5004876;28;20404;-66
2023/10/05 10:20:36;;;;;;;13.02;1.40;;;;;;;;;;4955749;28;20047;-66
2023/10/05 10:23:13;;;;;;;8.57;1.40;;;;;;;;;;4950718;28;20204;-66
2023/10/05 10:25:41;;;;;;;4.75;1.83;;;;;;;;;;4952830;28;20047;-67
2023/10/05 10:28:14;;;;;;;7.10;1.38;;;;;;;;;;4950560;28;20054;-66
2023/10/05 10:30:46;;;;;;;6.45;1.33;;;;;;;;;;4956061;28;20124;-66
2023/10/05 10:33:27;;;;;;;8.23;1.50;;;;;;;;;;4950636;28;20143;-68
2023/10/05 10:35:55;;;;;;;8.15;1.40;;;;;;;;;;4952444;28;20051;-66
2023/10/05 10:38:23;;;;;;;11.55;1.25;;;;;;;;;;4956926;28;20050;-66
2023/10/05 10:41:10;;;;;;;12.95;2.00;;;;;;;;;;4950260;28;20083;-66
2023/10/05 10:43:40;;;;;;;7.05;1.75;;;;;;;;;;4948950;28;20073;-66
2023/10/05 10:46:14;;;;;;;16.85;2.13;;;;;;;;;;4947008;28;20365;-67
2023/10/05 10:48:53;;;;;;;9.68;2.08;;;;;;;;;;4956352;28;20098;-67
2023/10/05 10:51:21;;;;;;;6.13;1.52;;;;;;;;;;4958896;28;20130;-66
2023/10/05 10:53:50;;;;;;;7.15;1.55;;;;;;;;;;4943214;28;20058;-67
2023/10/05 10:56:21;;;;;;;6.90;1.48;;;;;;;;;;4953571;28;20450;-67
2023/10/05 10:58:56;;;;;;;6.50;1.10;;;;;;;;;;4954900;28;20059;-66
2023/10/05 11:01:29;;;;;;;10.32;1.50;;;;;;;;;;4956650;28;20059;-68
2023/10/05 11:03:56;;;;;;;12.38;1.77;;;;;;;;;;4953168;28;20126;-66
2023/10/05 11:06:26;;;;;;;15.20;1.95;;;;;;;;;;4955336;28;20130;-67
2023/10/05 11:08:53;;;;;;;8.38;1.60;;;;;;;;;;4951172;28;20486;-66
2023/10/05 11:11:23;;;;;;;6.65;1.33;;;;;;;;;;4955927;28;20070;-67
2023/10/05 11:13:54;;;;;;;9.27;1.63;;;;;;;;;;4947979;28;20051;-67
2023/10/05 11:16:26;;;;;;;9.13;1.42;;;;;;;;;;4954874;28;20055;-67
2023/10/05 11:18:57;;;;;;;6.30;1.67;;;;;;;;;;4966532;28;20061;-67
2023/10/05 11:21:26;;;;;;;5.50;1.63;;;;;;;;;;4998276;28;20049;-67
2023/10/05 11:23:57;;;;;;;5.18;1.33;;;;;;;;;;4994189;28;20806;-66
2023/10/05 11:26:33;;;;;;;10.38;1.42;;;;;;;;;;5002475;28;21491;-66
2023/10/05 11:29:06;;;;;;;11.55;1.63;;;;;;;;;;4995366;28;20082;-66
2023/10/05 11:31:35;;;;;;;10.65;1.42;;;;;;;;;;4994381;28;20050;-67
2023/10/05 11:34:08;;;;;;;7.40;1.30;;;;;;;;;;4997000;28;20567;-67
2023/10/05 11:36:39;;;;;;;5.35;1.40;;;;;;;;;;4992771;28;20058;-67
2023/10/05 11:39:08;;;;;;;4.75;1.38;;;;;;;;;;4995456;28;20050;-66
2023/10/05 11:41:39;;;;;;;6.70;1.20;;;;;;;;;;5002297;28;20096;-67
2023/10/05 11:44:11;;;;;;;5.85;1.10;;;;;;;;;;4996316;28;20088;-66
2023/10/05 11:46:43;;;;;;;8.05;1.83;;;;;;;;;;4998390;28;20053;-67
2023/10/05 11:49:11;;;;;;;4.47;1.23;;;;;;;;;;4987616;28;20105;-67
2023/10/05 11:51:41;;;;;;;4.82;1.02;;;;;;;;;;4993403;28;20050;-68
2023/10/05 11:54:09;;;;;;;4.80;1.05;;;;;;;;;;4991623;28;20401;-68
2023/10/05 11:56:38;;;;;;;6.03;1.33;;;;;;;;;;4998652;28;20050;-67
2023/10/05 11:59:07;;;;;;;7.90;1.33;;;;;;;;;;4978269;28;20057;-66
2023/10/05 12:01:34;;;;;;;4.93;1.40;;;;;;;;;;4995636;28;20057;-67
2023/10/05 12:04:04;;;;;;;8.68;1.20;;;;;;;;;;4978918;28;20046;-68
2023/10/05 12:06:32;;;;;;;13.00;2.10;;;;;;;;;;4994572;28;20050;-67
2023/10/05 12:09:06;;;;;;;12.43;1.50;;;;;;;;;;4998376;28;20058;-67
2023/10/05 12:11:34;;;;;;;13.95;2.35;;;;;;;;;;4994133;28;20050;-67
2023/10/05 12:14:04;;;;;;;12.27;1.45;;;;;;;;;;4990256;28;20042;-67
2023/10/05 12:16:33;;;;;;;10.48;1.40;;;;;;;;;;4994744;28;20109;-67
2023/10/05 12:19:13;;;;;;;9.27;1.67;;;;;;;;;;4994281;28;20527;-66
2023/10/05 12:21:41;;;;;;;10.52;1.42;;;;;;;;;;4991675;28;20169;-67
2023/10/05 12:24:10;;;;;;;11.25;1.80;;;;;;;;;;4994726;28;20070;-67
2023/10/05 12:26:39;;;;;;;9.93;1.88;;;;;;;;;;4993122;28;20073;-67
2023/10/05 12:29:12;;;;;;;7.88;1.70;;;;;;;;;;4995372;28;20050;-67
2023/10/05 12:31:39;;;;;;;8.80;1.48;;;;;;;;;;4989352;28;20108;-69
2023/10/05 12:34:09;;;;;;;7.38;1.50;;;;;;;;;;4990972;28;20047;-67
2023/10/05 12:36:36;;;;;;;8.73;1.63;;;;;;;;;;4994754;28;20049;-67
2023/10/05 12:39:09;;;;;;;4.38;1.23;;;;;;;;;;4996917;28;20057;-67
2023/10/05 12:41:40;;;;;;;8.18;1.70;;;;;;;;;;4992875;28;20125;-67
2023/10/05 12:44:13;;;;;;;7.03;1.45;;;;;;;;;;4991037;28;20508;-66
2023/10/05 12:46:40;;;;;;;8.68;1.15;;;;;;;;;;4993100;28;20054;-68
2023/10/05 12:49:08;;;;;;;8.20;1.73;;;;;;;;;;4992088;28;20046;-67
2023/10/05 12:51:35;;;;;;;7.38;1.55;;;;;;;;;;4994723;28;20121;-67
2023/10/05 12:54:08;;;;;;;8.63;1.50;;;;;;;;;;4990793;28;20410;-67
2023/10/05 12:56:38;;;;;;;7.03;1.20;;;;;;;;;;4987120;28;20184;-67
2023/10/05 12:59:07;;;;;;;9.23;1.50;;;;;;;;;;5001774;28;20061;-68
2023/10/05 13:01:41;;;;;;;9.70;1.75;;;;;;;;;;4971869;28;20082;-67
2023/10/05 13:04:08;;;;;;;7.38;1.30;;;;;;;;;;4992490;28;20508;-68
2023/10/05 13:06:38;;;;;;;9.90;1.38;;;;;;;;;;4992809;28;20085;-67
2023/10/05 13:09:11;;;;;;;10.95;1.45;;;;;;;;;;4990727;28;20532;-67
2023/10/05 13:11:39;;;;;;;7.63;1.50;;;;;;;;;;4992595;28;20050;-67
2023/10/05 13:14:08;;;;;;;7.30;1.88;;;;;;;;;;4994092;28;20043;-67
2023/10/05 13:16:38;;;;;;;12.68;1.50;;;;;;;;;;4975691;28;20049;-67
2023/10/05 13:19:09;;;;;;;6.60;1.27;;;;;;;;;;4996363;28;20569;-67
2023/10/05 13:21:39;;;;;;;6.65;1.38;;;;;;;;;;4997664;28;20144;-68
2023/10/05 13:24:09;;;;;;;6.57;1.20;;;;;;;;;;4993246;28;20046;-69
2023/10/05 13:26:36;;;;;;;6.30;1.08;;;;;;;;;;4975568;28;20143;-67
2023/10/05 13:29:07;;;;;;;5.55;1.50;;;;;;;;;;4995934;28;20105;-66
2023/10/05 13:31:38;;;;;;;8.07;1.23;;;;;;;;;;4995302;28;20054;-65
2023/10/05 13:34:09;;;;;;;5.80;1.15;;;;;;;;;;4994353;28;20482;-68
2023/10/05 13:36:36;;;;;;;7.55;1.52;;;;;;;;;;4992206;28;20053;-67
2023/10/05 13:39:10;;;;;;;7.20;1.42;;;;;;;;;;4995637;28;20058;-68
2023/10/05 13:41:38;;;;;;;4.13;1.17;;;;;;;;;;4991833;28;20105;-67
2023/10/05 13:44:06;;;;;;;3.60;0.95;;;;;;;;;;4989868;28;20061;-66
2023/10/05 13:46:43;;;;;;;6.10;0.93;;;;;;;;;;4988776;28;20092;-67
2023/10/05 13:49:11;;;;;;;9.57;1.40;;;;;;;;;;4983647;28;20047;-66
2023/10/05 13:51:38;;;;;;;9.00;1.80;;;;;;;;;;4995084;28;20108;-67
2023/10/05 13:54:12;;;;;;;6.70;1.10;;;;;;;;;;4997776;28;20104;-66
2023/10/05 13:56:42;;;;;;;6.03;1.48;;;;;;;;;;4986913;28;20089;-68
2023/10/05 13:59:17;;;;;;;5.82;1.27;;;;;;;;;;4989226;28;20054;-66
2023/10/05 14:01:45;;;;;;;7.03;1.42;;;;;;;;;;4992525;28;20057;-67
2023/10/05 14:04:17;;;;;;;8.90;1.15;;;;;;;;;;4979462;28;20061;-67
2023/10/05 14:06:44;;;;;;;8.05;1.20;;;;;;;;;;4992707;28;20049;-66
2023/10/05 14:09:12;;;;;;;9.85;1.27;;;;;;;;;;4996419;28;20054;-68
2023/10/05 14:11:41;;;;;;;4.90;0.88;;;;;;;;;;4990920;28;20366;-67
2023/10/05 14:14:08;;;;;;;5.90;1.38;;;;;;;;;;4989031;28;20053;-66
2023/10/05 14:16:49;;;;;;;6.35;1.10;;;;;;;;;;4983724;28;20097;-67
2023/10/05 14:19:18;;;;;;;4.82;1.17;;;;;;;;;;4996885;28;20054;-67
2023/10/05 14:21:46;;;;;;;4.25;1.35;;;;;;;;;;4978367;28;20127;-67
2023/10/05 14:24:17;;;;;;;6.43;1.30;;;;;;;;;;4992770;28;20065;-66
2023/10/05 14:26:47;;;;;;;8.13;1.40;;;;;;;;;;4989134;28;20050;-66
2023/10/05 14:29:15;;;;;;;11.05;1.85;;;;;;;;;;4996522;28;20054;-66
2023/10/05 14:31:44;;;;;;;6.15;1.30;;;;;;;;;;4983381;28;20070;-66
2023/10/05 14:34:13;;;;;;;8.70;1.20;;;;;;;;;;4989802;28;20050;-67
2023/10/05 14:36:42;;;;;;;7.43;1.50;;;;;;;;;;4979518;28;20554;-66
2023/10/05 14:39:18;;;;;;;10.05;1.42;;;;;;;;;;4990251;28;20069;-68
2023/10/05 14:41:45;;;;;;;10.00;1.95;;;;;;;;;;4988185;28;20058;-67
2023/10/05 14:44:13;;;;;;;4.32;1.00;;;;;;;;;;4992413;28;20050;-67
2023/10/05 14:46:41;;;;;;;7.65;1.27;;;;;;;;;;4988337;28;20101;-67
2023/10/05 14:49:09;;;;;;;8.85;0.98;;;;;;;;;;4987056;28;20041;-67
2023/10/05 14:51:36;;;;;;;4.93;1.02;;;;;;;;;;4996710;28;20130;-67
2023/10/05 14:54:05;;;;;;;5.15;1.10;;;;;;;;;;4983310;28;20467;-67
2023/10/05 14:56:33;;;;;;;6.68;1.40;;;;;;;;;;4988225;28;20043;-67
2023/10/05 14:59:00;;;;;;;5.10;1.10;;;;;;;;;;4976340;28;20054;-67
2023/10/05 15:01:28;;;;;;;5.90;1.40;;;;;;;;;;4998933;28;20054;-67
2023/10/05 15:03:55;;;;;;;8.55;1.60;;;;;;;;;;4997819;28;20049;-68